Terminal Aerodrome Forecast
Issued by NWS

Home | Current Version | Previous Version | Text Only | Print | Product List | Glossary On
Versions: 1 2 3 4 5 6 7 8 9 10 11 12 13 14
000
FTUS43 KMQT 151133 AAB
TAFIWD
TAF AMD
KIWD 151133Z 1512/1612 26009KT 3SM -SHSN OVC015
     FM152100 29007KT 3SM -SHSN OVC020
     FM160000 27005KT 4SM -SHSN BKN025
     FM160200 26004KT 4SM -SHSN BKN040
     FM160500 00000KT 6SM -SHSN BKN020=

USA.gov is the U.S. government's official web portal to all federal, state and local government web resources and services.